createdAt,value
2023-12-17T00:00:09.883Z,13.32
2023-12-17T00:02:37.217Z,13.25
2023-12-17T00:05:05.058Z,14.10
2023-12-17T00:07:32.305Z,13.32
2023-12-17T00:09:59.725Z,13.32
2023-12-17T00:12:27.045Z,12.95
2023-12-17T00:14:54.599Z,14.65
2023-12-17T00:17:22.686Z,14.10
2023-12-17T00:19:50.112Z,14.15
2023-12-17T00:22:17.571Z,14.13
2023-12-17T00:24:44.931Z,14.25
2023-12-17T00:27:16.266Z,14.52
2023-12-17T00:29:43.588Z,14.68
2023-12-17T00:32:10.845Z,13.93
2023-12-17T00:34:38.313Z,14.82
2023-12-17T00:37:06.086Z,14.38
2023-12-17T00:39:33.467Z,14.40
2023-12-17T00:42:00.793Z,14.63
2023-12-17T00:44:28.048Z,15.05
2023-12-17T00:46:55.366Z,15.18
2023-12-17T00:49:22.651Z,15.30
2023-12-17T00:51:49.846Z,13.93
2023-12-17T00:54:17.148Z,14.10
2023-12-17T00:56:44.502Z,14.55
2023-12-17T00:59:11.838Z,13.38
2023-12-17T01:01:39.941Z,14.77
2023-12-17T01:04:07.283Z,15.65
2023-12-17T01:06:34.522Z,16.17
2023-12-17T01:09:01.861Z,15.40
2023-12-17T01:11:29.124Z,14.57
2023-12-17T01:13:56.429Z,14.52
2023-12-17T01:16:23.588Z,14.52
2023-12-17T01:18:51.004Z,14.57
2023-12-17T01:21:18.424Z,14.07
2023-12-17T01:23:45.772Z,15.60
2023-12-17T01:26:24.410Z,14.75
2023-12-17T01:28:51.735Z,15.85
2023-12-17T01:31:19.190Z,16.42
2023-12-17T01:33:46.655Z,16.08
2023-12-17T01:36:14.097Z,15.65
2023-12-17T01:38:41.488Z,16.10
2023-12-17T01:41:08.838Z,15.38
2023-12-17T01:43:36.369Z,15.40
2023-12-17T01:46:04.204Z,14.82
2023-12-17T01:48:32.131Z,17.08
2023-12-17T01:50:59.869Z,15.00
2023-12-17T01:53:27.144Z,15.65
2023-12-17T01:55:54.807Z,15.88
2023-12-17T01:58:23.148Z,15.95
2023-12-17T02:00:50.693Z,16.52
2023-12-17T02:03:18.348Z,15.23
2023-12-17T02:05:47.541Z,15.27
2023-12-17T02:08:15.173Z,15.48
2023-12-17T02:10:42.413Z,16.80
2023-12-17T02:13:11.756Z,16.73
2023-12-17T02:15:39.343Z,14.90
2023-12-17T02:18:07.084Z,17.75
2023-12-17T02:20:36.083Z,16.25
2023-12-17T02:23:06.621Z,18.10
2023-12-17T02:25:34.263Z,17.13
2023-12-17T02:28:01.677Z,15.45
2023-12-17T02:30:29.235Z,16.73
2023-12-17T02:32:57.202Z,16.80
2023-12-17T02:35:24.871Z,16.65
2023-12-17T02:37:52.142Z,16.05
2023-12-17T02:40:19.467Z,18.05
2023-12-17T02:42:46.968Z,16.92
2023-12-17T02:45:14.774Z,17.38
2023-12-17T02:47:42.644Z,17.00
2023-12-17T02:50:11.419Z,17.42
2023-12-17T02:52:38.690Z,17.17
2023-12-17T02:55:06.559Z,17.05
2023-12-17T02:57:34.107Z,17.63
2023-12-17T03:00:01.295Z,17.08
2023-12-17T03:02:29.408Z,16.65
2023-12-17T03:04:56.719Z,18.73
2023-12-17T03:07:23.973Z,19.42
2023-12-17T03:09:51.413Z,18.52
2023-12-17T03:12:18.662Z,17.67
2023-12-17T03:14:46.387Z,17.52
2023-12-17T03:17:14.033Z,19.00
2023-12-17T03:19:41.842Z,18.73
2023-12-17T03:22:09.170Z,18.23
2023-12-17T03:24:36.455Z,19.30
2023-12-17T03:27:03.934Z,17.90
2023-12-17T03:29:31.124Z,19.25
2023-12-17T03:31:59.499Z,18.08
2023-12-17T03:34:28.115Z,22.30
2023-12-17T03:36:55.402Z,18.65
2023-12-17T03:39:22.685Z,18.95
2023-12-17T03:41:49.992Z,18.02
2023-12-17T03:44:17.295Z,18.08
2023-12-17T03:46:44.511Z,16.70
2023-12-17T03:49:11.912Z,19.20
2023-12-17T03:51:39.377Z,18.00
2023-12-17T03:54:06.714Z,17.67
2023-12-17T03:56:33.974Z,17.48
2023-12-17T03:59:01.138Z,17.67
2023-12-17T04:01:28.419Z,16.48
2023-12-17T04:03:55.778Z,17.70
2023-12-17T04:06:23.164Z,17.45
2023-12-17T04:08:55.707Z,18.65
2023-12-17T04:11:23.443Z,17.92
2023-12-17T04:13:50.575Z,17.27
2023-12-17T04:16:17.774Z,17.33
2023-12-17T04:18:45.113Z,16.40
2023-12-17T04:21:12.479Z,16.63
2023-12-17T04:23:39.759Z,19.08
2023-12-17T04:26:07.409Z,16.92
2023-12-17T04:28:34.734Z,17.52
2023-12-17T04:31:01.999Z,17.15
2023-12-17T04:33:29.383Z,16.70
2023-12-17T04:35:56.672Z,18.20
2023-12-17T04:38:25.102Z,18.25
2023-12-17T04:40:52.764Z,16.85
2023-12-17T04:43:20.018Z,16.35
2023-12-17T04:45:47.248Z,17.13
2023-12-17T04:48:14.693Z,16.70
2023-12-17T04:50:42.059Z,18.90
2023-12-17T04:53:09.443Z,17.60
2023-12-17T04:55:36.916Z,17.33
2023-12-17T04:58:04.160Z,16.95
2023-12-17T05:00:31.544Z,17.13
2023-12-17T05:02:58.932Z,18.02
2023-12-17T05:05:27.614Z,15.90
2023-12-17T05:07:54.776Z,16.88
2023-12-17T05:10:22.087Z,17.25
2023-12-17T05:12:49.298Z,15.45
2023-12-17T05:15:16.654Z,16.25
2023-12-17T05:17:44.419Z,18.10
2023-12-17T05:20:12.144Z,17.05
2023-12-17T05:22:39.503Z,16.58
2023-12-17T05:25:08.530Z,16.63
2023-12-17T05:27:38.009Z,15.98
2023-12-17T05:30:05.982Z,15.25
2023-12-17T05:32:34.211Z,15.55
2023-12-17T05:35:01.913Z,15.13
2023-12-17T05:37:29.362Z,15.98
2023-12-17T05:39:56.571Z,14.93
2023-12-17T05:42:23.998Z,15.98
2023-12-17T05:44:51.708Z,15.95
2023-12-17T05:47:19.962Z,14.23
2023-12-17T05:49:47.428Z,16.70
2023-12-17T05:52:14.852Z,15.65
2023-12-17T05:54:44.429Z,14.57
2023-12-17T05:57:11.699Z,13.67
2023-12-17T05:59:38.973Z,14.05
2023-12-17T06:02:06.734Z,14.13
2023-12-17T06:04:34.505Z,14.45
2023-12-17T06:07:01.825Z,15.68
2023-12-17T06:09:29.219Z,14.45
2023-12-17T06:11:59.120Z,12.93
2023-12-17T06:14:26.703Z,14.18
2023-12-17T06:16:53.985Z,14.27
2023-12-17T06:19:21.330Z,13.60
2023-12-17T06:21:48.807Z,15.43
2023-12-17T06:24:16.209Z,15.35
2023-12-17T06:26:43.651Z,14.18
2023-12-17T06:29:15.044Z,13.80
2023-12-17T06:31:42.619Z,13.70
2023-12-17T06:34:10.332Z,14.93
2023-12-17T06:36:37.941Z,14.40
2023-12-17T06:39:10.167Z,13.93
2023-12-17T06:41:44.230Z,14.65
2023-12-17T06:44:11.489Z,16.00
2023-12-17T06:46:38.935Z,13.70
2023-12-17T06:49:06.248Z,15.13
2023-12-17T06:51:33.598Z,15.00
2023-12-17T06:54:01.066Z,14.63
2023-12-17T06:56:28.886Z,14.57
2023-12-17T06:58:56.216Z,16.25
2023-12-17T07:01:23.584Z,16.42
2023-12-17T07:03:51.571Z,13.57
2023-12-17T07:06:18.890Z,14.85
2023-12-17T07:08:46.231Z,14.95
2023-12-17T07:11:13.646Z,14.60
2023-12-17T07:13:40.946Z,15.50
2023-12-17T07:16:08.569Z,16.23
2023-12-17T07:18:35.931Z,14.98
2023-12-17T07:21:03.377Z,14.25
2023-12-17T07:23:30.629Z,15.20
2023-12-17T07:25:57.767Z,14.55
2023-12-17T07:28:25.060Z,15.15
2023-12-17T07:30:52.353Z,15.27
2023-12-17T07:33:19.692Z,15.50
2023-12-17T07:35:47.211Z,14.88
2023-12-17T07:38:14.655Z,15.82
2023-12-17T07:40:42.042Z,15.18
2023-12-17T07:43:09.329Z,15.15
2023-12-17T07:45:38.136Z,16.45
2023-12-17T07:48:06.062Z,14.68
2023-12-17T07:50:34.451Z,15.80
2023-12-17T07:53:01.777Z,14.23
2023-12-17T07:55:29.067Z,13.65
2023-12-17T07:57:56.288Z,15.45
2023-12-17T08:00:23.617Z,14.40
2023-12-17T08:02:51.018Z,15.07
2023-12-17T08:05:19.065Z,14.23
2023-12-17T08:07:46.320Z,14.30
2023-12-17T08:10:13.741Z,16.38
2023-12-17T08:12:41.117Z,14.20
2023-12-17T08:15:08.892Z,15.20
2023-12-17T08:17:36.199Z,14.13
2023-12-17T08:20:04.241Z,13.48
2023-12-17T08:22:31.468Z,12.85
2023-12-17T08:24:58.778Z,14.23
2023-12-17T08:27:26.044Z,12.70
2023-12-17T08:29:53.362Z,13.77
2023-12-17T08:32:21.689Z,13.25
2023-12-17T08:34:49.101Z,14.38
2023-12-17T08:37:16.445Z,14.00
2023-12-17T08:39:44.532Z,14.55
2023-12-17T08:42:11.864Z,13.23
2023-12-17T08:44:39.192Z,13.98
2023-12-17T08:47:06.527Z,13.63
2023-12-17T08:49:33.835Z,13.73
2023-12-17T08:52:01.129Z,13.52
2023-12-17T08:54:28.570Z,11.82
2023-12-17T08:56:55.911Z,13.32
2023-12-17T08:59:23.274Z,13.30
2023-12-17T09:01:51.315Z,14.27
2023-12-17T09:04:18.981Z,12.77
2023-12-17T09:06:47.496Z,13.00
2023-12-17T09:09:16.325Z,13.20
2023-12-17T09:11:44.445Z,13.20
2023-12-17T09:14:11.733Z,12.13
2023-12-17T09:16:39.687Z,13.45
2023-12-17T09:19:07.272Z,13.68
2023-12-17T09:21:35.181Z,12.75
2023-12-17T09:24:02.491Z,13.52
2023-12-17T09:26:29.773Z,13.02
2023-12-17T09:28:57.036Z,13.25
2023-12-17T09:31:24.601Z,13.68
2023-12-17T09:33:52.085Z,13.27
2023-12-17T09:36:19.552Z,13.32
2023-12-17T09:38:46.939Z,13.30
2023-12-17T09:41:14.428Z,12.13
2023-12-17T09:43:41.852Z,13.70
2023-12-17T09:46:10.451Z,13.63
2023-12-17T09:48:39.068Z,13.88
2023-12-17T09:51:07.283Z,13.98
2023-12-17T09:53:36.033Z,12.80
2023-12-17T09:56:03.293Z,13.45
2023-12-17T09:58:30.591Z,14.43
2023-12-17T10:00:58.158Z,12.80
2023-12-17T10:03:26.160Z,13.38
2023-12-17T10:05:55.476Z,12.95
2023-12-17T10:08:24.106Z,13.70
2023-12-17T10:10:51.957Z,13.95
2023-12-17T10:13:21.202Z,14.25
2023-12-17T10:15:50.362Z,13.23
2023-12-17T10:18:18.806Z,14.25
2023-12-17T10:20:47.157Z,14.07
2023-12-17T10:23:15.135Z,13.85
2023-12-17T10:25:43.546Z,13.10
2023-12-17T10:28:14.892Z,14.25
2023-12-17T10:30:43.647Z,13.63
2023-12-17T10:33:19.214Z,13.40
2023-12-17T10:35:47.264Z,12.73
2023-12-17T10:38:17.409Z,13.65
2023-12-17T10:40:45.236Z,13.15
2023-12-17T10:43:14.242Z,14.43
2023-12-17T10:45:44.848Z,13.60
2023-12-17T10:48:15.082Z,14.07
2023-12-17T10:50:43.835Z,13.30
2023-12-17T10:53:11.096Z,14.38
2023-12-17T10:55:38.428Z,13.50
2023-12-17T10:58:11.056Z,14.75
2023-12-17T11:00:41.024Z,14.55
2023-12-17T11:03:11.184Z,14.50
2023-12-17T11:05:54.136Z,15.35
2023-12-17T11:08:25.036Z,14.98
2023-12-17T11:10:52.788Z,13.95
2023-12-17T11:13:26.454Z,15.07
2023-12-17T11:15:54.649Z,15.30
2023-12-17T11:18:24.853Z,14.07
2023-12-17T11:20:54.747Z,14.27
2023-12-17T11:23:22.545Z,15.38
2023-12-17T11:25:50.108Z,14.00
2023-12-17T11:28:27.440Z,13.07
2023-12-17T11:30:56.143Z,13.80
2023-12-17T11:33:23.726Z,15.15
2023-12-17T11:35:51.773Z,13.48
2023-12-17T11:38:19.268Z,14.20
2023-12-17T11:40:46.918Z,14.20
2023-12-17T11:43:14.141Z,14.18
2023-12-17T11:45:47.166Z,14.88
2023-12-17T11:48:19.718Z,13.93
2023-12-17T11:50:53.062Z,13.65
2023-12-17T11:53:22.118Z,13.93
2023-12-17T11:55:50.940Z,14.02
2023-12-17T11:58:23.230Z,14.75
2023-12-17T12:01:04.218Z,14.07
2023-12-17T12:03:32.157Z,13.30
2023-12-17T12:06:07.502Z,14.13
2023-12-17T12:09:04.033Z,12.88
2023-12-17T12:11:35.306Z,13.13
2023-12-17T12:14:02.929Z,13.77
2023-12-17T12:16:40.816Z,13.85
2023-12-17T12:19:10.567Z,14.07
2023-12-17T12:21:41.702Z,13.73
2023-12-17T12:24:12.529Z,14.07
2023-12-17T12:26:39.888Z,13.20
2023-12-17T12:29:10.617Z,12.70
2023-12-17T12:31:38.217Z,13.32
2023-12-17T12:34:07.102Z,13.30
2023-12-17T12:36:48.519Z,12.82
2023-12-17T12:39:19.919Z,14.50
2023-12-17T12:41:48.370Z,14.65
2023-12-17T12:44:17.180Z,14.65
2023-12-17T12:46:48.965Z,13.90
2023-12-17T12:49:19.510Z,13.80
2023-12-17T12:51:48.836Z,13.48
2023-12-17T12:56:43.615Z,13.32
2023-12-17T12:59:22.501Z,14.38
2023-12-17T13:01:53.774Z,13.38
2023-12-17T13:04:22.398Z,12.73
2023-12-17T13:06:49.745Z,13.00
2023-12-17T13:09:19.213Z,13.88
2023-12-17T13:11:50.366Z,12.52
2023-12-17T13:14:18.642Z,13.20
2023-12-17T13:16:46.036Z,12.95
2023-12-17T13:19:15.470Z,13.05
2023-12-17T13:21:43.639Z,13.50
2023-12-17T13:24:11.127Z,12.65
2023-12-17T13:26:39.780Z,14.18
2023-12-17T13:29:07.238Z,13.30
2023-12-17T13:31:36.861Z,13.25
2023-12-17T13:34:04.619Z,13.18
2023-12-17T13:36:33.249Z,12.88
2023-12-17T13:39:00.982Z,12.55
2023-12-17T13:41:28.487Z,12.13
2023-12-17T13:43:55.743Z,11.93
2023-12-17T13:46:22.979Z,12.75
2023-12-17T13:48:50.590Z,12.73
2023-12-17T13:51:19.547Z,12.00
2023-12-17T13:53:49.789Z,12.07
2023-12-17T13:56:17.323Z,12.20
2023-12-17T13:58:44.781Z,12.45
2023-12-17T14:01:12.569Z,12.00
2023-12-17T14:03:40.123Z,11.07
2023-12-17T14:06:10.142Z,11.40
2023-12-17T14:08:37.552Z,11.68
2023-12-17T14:11:04.861Z,11.55
2023-12-17T14:13:32.159Z,10.90
2023-12-17T14:15:59.758Z,11.18
2023-12-17T14:18:27.189Z,11.25
2023-12-17T14:20:54.514Z,11.60
2023-12-17T14:23:22.870Z,11.60
2023-12-17T14:25:51.767Z,12.07
2023-12-17T14:28:19.770Z,10.23
2023-12-17T14:30:48.962Z,10.73
2023-12-17T14:33:17.648Z,10.63
2023-12-17T14:35:45.346Z,10.77
2023-12-17T14:38:12.991Z,10.27
2023-12-17T14:40:40.437Z,10.45
2023-12-17T14:43:07.808Z,9.65
2023-12-17T14:45:35.303Z,10.10
2023-12-17T14:48:02.756Z,9.75
2023-12-17T14:50:33.146Z,9.88
2023-12-17T14:53:00.743Z,9.85
2023-12-17T14:55:27.938Z,11.00
2023-12-17T14:57:55.169Z,9.48
2023-12-17T15:00:23.437Z,10.93
2023-12-17T15:02:52.246Z,10.70
2023-12-17T15:05:19.898Z,9.85
2023-12-17T15:07:47.181Z,10.63
2023-12-17T15:10:14.424Z,10.00
2023-12-17T15:12:41.792Z,9.52
2023-12-17T15:15:09.717Z,10.38
2023-12-17T15:17:37.186Z,10.75
2023-12-17T15:20:06.216Z,10.30
2023-12-17T15:22:34.076Z,10.52
2023-12-17T15:25:01.364Z,10.20
2023-12-17T15:27:29.133Z,10.38
2023-12-17T15:29:56.425Z,10.50
2023-12-17T15:32:24.286Z,11.02
2023-12-17T15:34:51.678Z,10.50
2023-12-17T15:37:19.099Z,10.13
2023-12-17T15:39:46.387Z,10.35
2023-12-17T15:42:13.774Z,10.35
2023-12-17T15:44:41.175Z,9.82
2023-12-17T15:47:08.358Z,9.85
2023-12-17T15:49:37.601Z,10.10
2023-12-17T15:52:05.459Z,10.35
2023-12-17T15:54:32.871Z,10.23
2023-12-17T15:57:00.459Z,10.45
2023-12-17T15:59:27.749Z,10.32
2023-12-17T16:01:55.423Z,10.40
2023-12-17T16:04:22.673Z,10.07
2023-12-17T16:06:49.994Z,10.32
2023-12-17T16:09:19.958Z,10.85
2023-12-17T16:11:48.274Z,11.02
2023-12-17T16:14:15.505Z,10.10
2023-12-17T16:16:42.857Z,10.95
2023-12-17T16:19:11.309Z,9.95
2023-12-17T16:21:39.109Z,9.57
2023-12-17T16:24:06.442Z,10.32
2023-12-17T16:26:33.820Z,10.13
2023-12-17T16:29:00.918Z,10.50
2023-12-17T16:31:28.265Z,10.27
2023-12-17T16:33:56.257Z,10.15
2023-12-17T16:36:23.748Z,10.52
2023-12-17T16:38:53.859Z,10.95
2023-12-17T16:41:21.278Z,9.30
2023-12-17T16:43:49.699Z,10.30
2023-12-17T16:46:18.090Z,9.57
2023-12-17T16:48:58.016Z,9.55
2023-12-17T16:51:27.619Z,10.02
2023-12-17T16:53:55.080Z,10.18
2023-12-17T16:56:24.191Z,10.05
2023-12-17T16:58:53.633Z,9.57
2023-12-17T17:01:21.413Z,9.30
2023-12-17T17:03:49.038Z,9.90
2023-12-17T17:06:16.441Z,9.32
2023-12-17T17:08:43.735Z,9.60
2023-12-17T17:11:13.563Z,10.55
2023-12-17T17:13:41.585Z,9.32
2023-12-17T17:16:08.872Z,9.48
2023-12-17T17:18:36.359Z,10.82
2023-12-17T17:21:03.981Z,9.88
2023-12-17T17:23:31.466Z,10.43
2023-12-17T17:25:59.002Z,9.88
2023-12-17T17:28:27.628Z,10.10
2023-12-17T17:30:54.976Z,9.60
2023-12-17T17:33:23.417Z,10.18
2023-12-17T17:35:51.036Z,10.32
2023-12-17T17:38:18.437Z,10.30
2023-12-17T17:40:45.795Z,10.25
2023-12-17T17:43:13.306Z,9.77
2023-12-17T17:45:40.638Z,10.00
2023-12-17T17:48:08.141Z,9.98
2023-12-17T17:50:35.665Z,10.25
2023-12-17T17:53:03.734Z,10.27
2023-12-17T17:55:33.809Z,9.15
2023-12-17T17:58:01.268Z,9.50
2023-12-17T18:00:29.002Z,10.00
2023-12-17T18:02:56.442Z,9.35
2023-12-17T18:05:23.828Z,9.90
2023-12-17T18:07:51.437Z,9.70
2023-12-17T18:10:19.419Z,10.77
2023-12-17T18:12:47.832Z,10.70
2023-12-17T18:15:15.271Z,10.70
2023-12-17T18:17:42.548Z,12.23
2023-12-17T18:20:10.267Z,11.07
2023-12-17T18:22:37.613Z,11.77
2023-12-17T18:25:05.651Z,11.65
2023-12-17T18:27:33.071Z,10.57
2023-12-17T18:30:00.464Z,12.25
2023-12-17T18:32:27.999Z,11.75
2023-12-17T18:34:55.549Z,11.52
2023-12-17T18:37:23.465Z,11.15
2023-12-17T18:39:55.757Z,11.85
2023-12-17T18:42:24.459Z,11.73
2023-12-17T18:44:55.431Z,10.38
2023-12-17T18:47:22.901Z,11.43
2023-12-17T18:49:50.601Z,10.45
2023-12-17T18:52:18.707Z,11.85
2023-12-17T18:55:02.428Z,12.05
2023-12-17T18:57:32.077Z,10.73
2023-12-17T18:59:59.869Z,11.15
2023-12-17T19:02:31.524Z,12.38
2023-12-17T19:04:58.882Z,11.85
2023-12-17T19:07:26.075Z,11.95
2023-12-17T19:09:53.404Z,11.00
2023-12-17T19:12:21.286Z,11.60
2023-12-17T19:14:49.252Z,11.30
2023-12-17T19:17:17.724Z,11.50
2023-12-17T19:19:45.364Z,11.45
2023-12-17T19:22:14.105Z,12.50
2023-12-17T19:24:41.770Z,12.35
2023-12-17T19:27:09.348Z,12.48
2023-12-17T19:29:38.898Z,11.88
2023-12-17T19:32:06.629Z,12.50
2023-12-17T19:34:40.524Z,11.68
2023-12-17T19:37:08.567Z,11.88
2023-12-17T19:39:39.019Z,11.05
2023-12-17T19:42:08.417Z,11.48
2023-12-17T19:44:36.135Z,11.30
2023-12-17T19:47:03.582Z,11.35
2023-12-17T19:49:31.152Z,10.75
2023-12-17T19:51:58.508Z,11.57
2023-12-17T19:54:25.984Z,10.63
2023-12-17T19:56:53.320Z,11.05
2023-12-17T19:59:20.706Z,11.07
2023-12-17T20:01:49.037Z,11.38
2023-12-17T20:04:16.382Z,11.88
2023-12-17T20:06:49.138Z,11.10
2023-12-17T20:09:17.324Z,12.18
2023-12-17T20:11:44.861Z,10.75
2023-12-17T20:14:12.144Z,11.25
2023-12-17T20:16:39.464Z,10.73
2023-12-17T20:19:07.999Z,10.00
2023-12-17T20:21:35.525Z,9.70
2023-12-17T20:24:02.874Z,9.93
2023-12-17T20:26:30.133Z,9.50
2023-12-17T20:28:57.311Z,9.60
2023-12-17T20:31:24.649Z,9.45
2023-12-17T20:33:52.381Z,9.60
2023-12-17T20:36:19.761Z,9.73
2023-12-17T20:38:47.027Z,9.45
2023-12-17T20:41:21.374Z,9.98
2023-12-17T20:43:48.766Z,10.70
2023-12-17T20:46:16.441Z,9.60
2023-12-17T20:48:43.733Z,10.40
2023-12-17T20:51:11.188Z,9.75
2023-12-17T20:53:39.090Z,9.55
2023-12-17T20:56:06.453Z,8.70
2023-12-17T20:58:33.767Z,8.60
2023-12-17T21:01:01.014Z,8.35
2023-12-17T21:03:28.453Z,8.93
2023-12-17T21:05:55.788Z,8.80
2023-12-17T21:08:24.997Z,8.48
2023-12-17T21:10:52.304Z,8.00
2023-12-17T21:13:19.504Z,8.15
2023-12-17T21:15:46.854Z,7.97
2023-12-17T21:18:14.282Z,8.68
2023-12-17T21:20:41.759Z,8.18
2023-12-17T21:23:09.062Z,8.55
2023-12-17T21:25:36.320Z,7.95
2023-12-17T21:28:03.667Z,7.75
2023-12-17T21:30:31.025Z,7.55
2023-12-17T21:32:58.551Z,8.10
2023-12-17T21:35:26.070Z,7.00
2023-12-17T21:37:53.247Z,7.32
2023-12-17T21:40:20.542Z,6.65
2023-12-17T21:42:47.830Z,6.82
2023-12-17T21:45:15.204Z,7.07
2023-12-17T21:47:43.018Z,7.07
2023-12-17T21:50:10.648Z,6.88
2023-12-17T21:53:44.162Z,7.28
2023-12-17T21:56:11.348Z,7.13
2023-12-17T21:58:38.658Z,6.85
2023-12-17T22:01:06.065Z,7.10
2023-12-17T22:03:33.492Z,6.60
2023-12-17T22:06:00.831Z,6.88
2023-12-17T22:08:28.233Z,6.97
2023-12-17T22:10:55.454Z,6.75
2023-12-17T22:13:22.801Z,7.22
2023-12-17T22:15:50.313Z,6.50
2023-12-17T22:18:18.108Z,6.65
2023-12-17T22:20:45.523Z,6.75
2023-12-17T22:23:13.339Z,6.50
2023-12-17T22:25:40.704Z,5.80
2023-12-17T22:28:08.970Z,6.18
2023-12-17T22:30:36.507Z,6.38
2023-12-17T22:33:04.351Z,5.78
2023-12-17T22:35:31.775Z,6.60
2023-12-17T22:37:58.940Z,6.15
2023-12-17T22:40:26.235Z,5.95
2023-12-17T22:42:53.500Z,6.25
2023-12-17T22:45:21.468Z,6.15
2023-12-17T22:47:48.906Z,6.75
2023-12-17T22:50:16.218Z,6.00
2023-12-17T22:52:43.766Z,5.82
2023-12-17T22:55:11.349Z,5.57
2023-12-17T22:57:38.770Z,5.82
2023-12-17T23:00:09.617Z,6.30
2023-12-17T23:02:36.989Z,5.80
2023-12-17T23:05:04.283Z,6.38
2023-12-17T23:07:31.547Z,6.20
2023-12-17T23:09:58.879Z,5.93
2023-12-17T23:12:26.216Z,6.10
2023-12-17T23:14:53.495Z,5.93
2023-12-17T23:17:20.882Z,6.10
2023-12-17T23:19:48.233Z,5.82
2023-12-17T23:22:15.636Z,5.78
2023-12-17T23:24:42.913Z,5.75
2023-12-17T23:27:10.359Z,5.65
2023-12-17T23:29:37.757Z,6.32
2023-12-17T23:32:05.346Z,5.97
2023-12-17T23:34:32.723Z,6.38
2023-12-17T23:37:00.073Z,6.43
2023-12-17T23:39:27.464Z,5.97
2023-12-17T23:41:54.813Z,6.30
2023-12-17T23:44:22.128Z,6.80
2023-12-17T23:46:49.578Z,5.90
2023-12-17T23:49:17.031Z,5.82
2023-12-17T23:51:44.304Z,6.30
2023-12-17T23:54:11.713Z,5.80
2023-12-17T23:56:44.133Z,5.82
2023-12-17T23:59:11.899Z,6.18
